Terminal Aerodrome Forecast
Issued by NWS

Home | Current Version | Previous Version | Text Only | Print | Product List | Glossary On
Versions: 1 2 3 4 5 6 7 8 9 10 11 12 13 14 15 16 17 18 19 20 21 22 23 24 25 26 27 28
000
FTAK31 PANC 290535
TAFAEN
TAF
PAEN 290535Z 2906/3006 04008KT P6SM -SN OVC045
      TEMPO 2908/2912 3SM -SN OVC020
     FM291200 03004KT 4SM -SN BR BKN015 OVC025
     FM292000 VRB05KT P6SM VCSH SCT025 BKN050=

USA.gov is the U.S. government's official web portal to all federal, state and local government web resources and services.